createdAt,value
2022-11-15T00:01:30.624Z,66.28
2022-11-15T00:03:32.324Z,66.40
2022-11-15T00:05:33.762Z,66.47
2022-11-15T00:07:54.583Z,66.39
2022-11-15T00:09:56.294Z,66.38
2022-11-15T00:11:57.621Z,66.58
2022-11-15T00:13:59.572Z,66.80
2022-11-15T00:16:01.601Z,66.85
2022-11-15T00:18:02.896Z,66.86
2022-11-15T00:20:04.310Z,66.79
2022-11-15T00:22:05.601Z,66.89
2022-11-15T00:24:06.870Z,66.96
2022-11-15T00:26:08.160Z,66.87
2022-11-15T00:28:09.472Z,67.05
2022-11-15T00:30:10.754Z,67.04
2022-11-15T00:32:12.083Z,67.07
2022-11-15T00:34:13.400Z,67.00
2022-11-15T00:36:14.745Z,66.94
2022-11-15T00:38:16.049Z,66.94
2022-11-15T00:40:17.348Z,66.86
2022-11-15T00:42:18.638Z,67.00
2022-11-15T00:44:19.937Z,66.82
2022-11-15T00:46:21.279Z,66.83
2022-11-15T00:48:22.615Z,66.94
2022-11-15T00:50:23.973Z,67.14
2022-11-15T00:52:25.251Z,66.95
2022-11-15T00:54:26.558Z,66.98
2022-11-15T00:56:27.906Z,66.71
2022-11-15T00:58:29.194Z,66.95
2022-11-15T01:00:30.596Z,67.06
2022-11-15T01:02:31.924Z,66.62
2022-11-15T01:04:33.256Z,66.97
2022-11-15T01:06:34.558Z,66.75
2022-11-15T01:08:35.902Z,67.10
2022-11-15T01:10:37.189Z,67.12
2022-11-15T01:12:38.473Z,67.04
2022-11-15T01:14:39.745Z,67.05
2022-11-15T01:16:41.089Z,67.07
2022-11-15T01:18:42.446Z,67.33
2022-11-15T01:20:43.801Z,67.38
2022-11-15T01:22:45.112Z,67.35
2022-11-15T01:24:46.406Z,67.15
2022-11-15T01:26:47.736Z,67.21
2022-11-15T01:28:49.020Z,67.07
2022-11-15T01:30:50.338Z,67.38
2022-11-15T01:32:51.614Z,67.54
2022-11-15T01:34:52.900Z,67.35
2022-11-15T01:36:54.196Z,67.46
2022-11-15T01:38:56.367Z,67.43
2022-11-15T01:40:57.674Z,67.73
2022-11-15T01:42:59.152Z,67.58
2022-11-15T01:45:00.455Z,67.52
2022-11-15T01:47:01.798Z,67.45
2022-11-15T01:49:03.100Z,67.54
2022-11-15T01:51:04.437Z,67.51
2022-11-15T01:53:05.748Z,67.69
2022-11-15T01:55:07.033Z,67.32
2022-11-15T01:57:08.296Z,67.49
2022-11-15T01:59:09.632Z,67.80
2022-11-15T02:01:11.012Z,67.78
2022-11-15T02:03:12.323Z,67.65
2022-11-15T02:05:13.618Z,67.63
2022-11-15T02:07:14.988Z,67.71
2022-11-15T02:09:16.591Z,67.71
2022-11-15T02:11:17.987Z,67.71
2022-11-15T02:13:19.331Z,67.76
2022-11-15T02:15:20.789Z,67.82
2022-11-15T02:17:22.126Z,68.04
2022-11-15T02:19:23.443Z,68.01
2022-11-15T02:21:24.740Z,67.84
2022-11-15T02:23:26.063Z,67.91
2022-11-15T02:25:27.566Z,68.08
2022-11-15T02:27:28.844Z,68.01
2022-11-15T02:29:30.396Z,68.25
2022-11-15T02:31:31.665Z,67.97
2022-11-15T02:33:33.265Z,67.23
2022-11-15T02:35:34.805Z,67.57
2022-11-15T02:37:36.636Z,67.74
2022-11-15T02:39:38.109Z,67.46
2022-11-15T02:41:39.381Z,67.31
2022-11-15T02:43:59.289Z,67.45
2022-11-15T02:46:00.604Z,67.34
2022-11-15T02:48:01.886Z,67.60
2022-11-15T02:50:03.222Z,67.61
2022-11-15T02:52:04.540Z,67.32
2022-11-15T02:54:05.829Z,67.70
2022-11-15T02:56:07.109Z,67.89
2022-11-15T02:58:08.398Z,67.75
2022-11-15T03:00:09.741Z,67.68
2022-11-15T03:02:11.054Z,67.89
2022-11-15T03:04:12.336Z,67.90
2022-11-15T03:06:13.646Z,67.74
2022-11-15T03:08:14.921Z,67.98
2022-11-15T03:10:18.153Z,67.98
2022-11-15T03:12:19.946Z,68.08
2022-11-15T03:14:21.293Z,68.15
2022-11-15T03:16:22.631Z,68.21
2022-11-15T03:18:24.452Z,68.47
2022-11-15T03:20:26.192Z,68.10
2022-11-15T03:22:27.605Z,68.07
2022-11-15T03:24:28.879Z,68.35
2022-11-15T03:26:30.601Z,68.21
2022-11-15T03:28:31.884Z,68.38
2022-11-15T03:30:33.749Z,68.40
2022-11-15T03:32:35.041Z,68.14
2022-11-15T03:34:36.328Z,68.25
2022-11-15T03:36:38.109Z,68.48
2022-11-15T03:38:39.916Z,68.24
2022-11-15T03:40:41.250Z,68.52
2022-11-15T03:42:42.988Z,68.43
2022-11-15T03:44:44.597Z,68.31
2022-11-15T03:46:45.877Z,68.24
2022-11-15T03:48:47.400Z,68.57
2022-11-15T03:50:48.718Z,68.82
2022-11-15T03:52:50.021Z,68.50
2022-11-15T03:54:51.590Z,68.31
2022-11-15T03:56:52.898Z,68.38
2022-11-15T03:58:54.614Z,68.56
2022-11-15T04:00:56.350Z,68.66
2022-11-15T04:02:57.712Z,68.57
2022-11-15T04:04:59.007Z,68.46
2022-11-15T04:07:03.515Z,68.25
2022-11-15T04:09:04.834Z,68.09
2022-11-15T04:11:07.657Z,67.89
2022-11-15T04:13:09.177Z,67.93
2022-11-15T04:15:10.912Z,67.72
2022-11-15T04:17:12.216Z,67.87
2022-11-15T04:19:32.685Z,67.62
2022-11-15T04:21:52.507Z,67.74
2022-11-15T04:24:06.075Z,68.15
2022-11-15T04:26:08.732Z,67.74
2022-11-15T04:28:10.048Z,67.85
2022-11-15T04:30:11.663Z,67.96
2022-11-15T04:32:12.941Z,67.87
2022-11-15T04:34:14.484Z,67.88
2022-11-15T04:36:34.309Z,68.07
2022-11-15T04:38:35.624Z,68.16
2022-11-15T04:40:37.365Z,68.10
2022-11-15T04:42:38.653Z,68.16
2022-11-15T04:44:40.007Z,68.29
2022-11-15T04:46:41.544Z,68.25
2022-11-15T04:48:42.854Z,68.49
2022-11-15T04:50:44.670Z,68.64
2022-11-15T04:52:46.372Z,68.28
2022-11-15T04:54:47.689Z,68.61
2022-11-15T04:56:49.069Z,68.67
2022-11-15T04:58:50.599Z,68.57
2022-11-15T05:00:51.997Z,68.94
2022-11-15T05:03:12.313Z,68.67
2022-11-15T05:05:13.632Z,69.14
2022-11-15T05:07:14.968Z,69.17
2022-11-15T05:09:16.476Z,69.04
2022-11-15T05:11:17.762Z,66.72
2022-11-15T05:13:19.104Z,60.80
2022-11-15T05:15:20.410Z,58.40
2022-11-15T05:17:21.689Z,57.68
2022-11-15T05:19:23.001Z,57.18
2022-11-15T05:21:24.299Z,56.55
2022-11-15T05:23:25.642Z,56.92
2022-11-15T05:25:27.417Z,58.25
2022-11-15T05:27:30.322Z,60.11
2022-11-15T05:29:31.609Z,57.87
2022-11-15T05:31:32.957Z,57.62
2022-11-15T05:33:34.777Z,57.80
2022-11-15T05:35:36.653Z,57.38
2022-11-15T05:37:38.456Z,57.63
2022-11-15T05:39:39.736Z,57.22
2022-11-15T05:41:44.753Z,57.76
2022-11-15T05:43:46.080Z,57.76
2022-11-15T05:45:47.785Z,57.66
2022-11-15T05:47:49.072Z,57.91
2022-11-15T05:49:50.538Z,58.09
2022-11-15T05:51:54.741Z,58.36
2022-11-15T05:53:56.214Z,58.46
2022-11-15T05:55:57.928Z,58.39
2022-11-15T05:57:59.228Z,58.60
2022-11-15T06:00:00.552Z,58.65
2022-11-15T06:02:02.468Z,59.08
2022-11-15T06:04:03.849Z,59.01
2022-11-15T06:06:05.476Z,59.56
2022-11-15T06:08:07.238Z,59.63
2022-11-15T06:10:08.533Z,59.97
2022-11-15T06:12:14.624Z,60.29
2022-11-15T06:14:15.909Z,60.45
2022-11-15T06:16:17.594Z,60.58
2022-11-15T06:18:18.868Z,61.06
2022-11-15T06:20:21.029Z,60.94
2022-11-15T06:22:22.299Z,61.20
2022-11-15T06:24:23.946Z,61.21
2022-11-15T06:26:25.258Z,61.46
2022-11-15T06:28:26.536Z,61.37
2022-11-15T06:30:28.433Z,61.84
2022-11-15T06:32:29.726Z,61.64
2022-11-15T06:34:33.822Z,62.06
2022-11-15T06:36:35.490Z,62.04
2022-11-15T06:38:37.266Z,61.95
2022-11-15T06:40:38.559Z,62.30
2022-11-15T06:42:39.865Z,62.42
2022-11-15T06:44:41.672Z,62.38
2022-11-15T06:46:42.999Z,62.79
2022-11-15T06:48:44.680Z,62.65
2022-11-15T06:50:45.964Z,62.74
2022-11-15T06:52:47.572Z,62.66
2022-11-15T06:54:48.925Z,63.12
2022-11-15T06:56:50.419Z,63.15
2022-11-15T06:58:51.697Z,63.05
2022-11-15T07:00:53.077Z,63.01
2022-11-15T07:02:54.875Z,63.00
2022-11-15T07:04:56.512Z,63.02
2022-11-15T07:06:58.509Z,63.38
2022-11-15T07:08:59.840Z,63.00
2022-11-15T07:11:06.290Z,63.33
2022-11-15T07:13:07.581Z,63.63
2022-11-15T07:15:09.954Z,63.28
2022-11-15T07:17:11.226Z,63.46
2022-11-15T07:19:12.529Z,63.71
2022-11-15T07:21:19.130Z,63.36
2022-11-15T07:23:22.592Z,63.46
2022-11-15T07:25:23.860Z,63.49
2022-11-15T07:27:25.880Z,63.41
2022-11-15T07:29:27.794Z,63.48
2022-11-15T07:31:29.817Z,63.71
2022-11-15T07:33:31.697Z,63.25
2022-11-15T07:35:33.241Z,63.34
2022-11-15T07:37:34.779Z,63.10
2022-11-15T07:39:36.101Z,63.65
2022-11-15T07:41:39.961Z,63.22
2022-11-15T07:43:41.298Z,63.35
2022-11-15T07:45:42.660Z,63.18
2022-11-15T07:47:44.586Z,63.03
2022-11-15T07:49:47.512Z,62.77
2022-11-15T07:51:48.795Z,62.97
2022-11-15T07:53:50.525Z,62.75
2022-11-15T07:55:51.829Z,62.63
2022-11-15T07:57:53.503Z,62.16
2022-11-15T07:59:55.418Z,62.47
2022-11-15T08:01:56.837Z,62.28
2022-11-15T08:03:58.139Z,62.16
2022-11-15T08:06:00.009Z,62.25
2022-11-15T08:08:01.325Z,62.45
2022-11-15T08:10:03.064Z,62.39
2022-11-15T08:12:04.387Z,62.29
2022-11-15T08:14:05.705Z,62.54
2022-11-15T08:16:07.034Z,62.22
2022-11-15T08:18:08.325Z,62.55
2022-11-15T08:20:09.603Z,62.74
2022-11-15T08:22:10.872Z,62.65
2022-11-15T08:24:12.185Z,62.76
2022-11-15T08:26:13.497Z,62.70
2022-11-15T08:28:14.822Z,63.06
2022-11-15T08:30:17.095Z,62.81
2022-11-15T08:32:18.857Z,62.84
2022-11-15T08:34:20.137Z,63.02
2022-11-15T08:36:21.425Z,63.20
2022-11-15T08:38:22.776Z,62.80
2022-11-15T08:40:24.220Z,63.24
2022-11-15T08:42:25.596Z,63.23
2022-11-15T08:44:26.881Z,63.39
2022-11-15T08:46:28.208Z,63.12
2022-11-15T08:48:29.687Z,62.99
2022-11-15T08:50:31.100Z,63.39
2022-11-15T08:52:32.909Z,63.30
2022-11-15T08:54:34.243Z,62.94
2022-11-15T08:56:35.560Z,62.95
2022-11-15T08:58:36.871Z,63.01
2022-11-15T09:00:38.220Z,63.23
2022-11-15T09:02:39.694Z,63.01
2022-11-15T09:04:41.196Z,62.98
2022-11-15T09:06:43.434Z,63.21
2022-11-15T09:08:47.881Z,62.91
2022-11-15T09:10:58.610Z,63.44
2022-11-15T09:12:59.901Z,63.50
2022-11-15T09:15:01.195Z,63.18
2022-11-15T09:17:02.483Z,62.93
2022-11-15T09:19:07.604Z,63.03
2022-11-15T09:21:12.725Z,62.67
2022-11-15T09:23:14.015Z,62.74
2022-11-15T09:25:15.509Z,62.57
2022-11-15T09:27:16.803Z,62.85
2022-11-15T09:29:18.300Z,62.72
2022-11-15T09:31:22.229Z,62.72
2022-11-15T09:33:23.732Z,62.39
2022-11-15T09:35:25.041Z,62.32
2022-11-15T09:37:26.318Z,62.19
2022-11-15T09:39:27.698Z,61.82
2022-11-15T09:41:28.981Z,61.70
2022-11-15T09:43:30.293Z,62.05
2022-11-15T09:45:31.578Z,61.94
2022-11-15T09:47:32.912Z,61.60
2022-11-15T09:49:34.183Z,61.73
2022-11-15T09:51:35.516Z,61.93
2022-11-15T09:54:18.556Z,61.77
2022-11-15T09:55:58.265Z,61.75
2022-11-15T09:57:59.555Z,61.74
2022-11-15T10:00:23.906Z,61.83
2022-11-15T10:02:22.293Z,62.00
2022-11-15T10:04:23.606Z,61.88
2022-11-15T10:06:24.923Z,61.79
2022-11-15T10:08:26.201Z,62.44
2022-11-15T10:10:27.481Z,62.37
2022-11-15T10:12:28.778Z,62.38
2022-11-15T10:14:30.101Z,62.54
2022-11-15T10:16:31.416Z,62.63
2022-11-15T10:18:33.002Z,62.70
2022-11-15T10:20:36.947Z,62.90
2022-11-15T10:22:38.301Z,62.76
2022-11-15T10:24:39.598Z,62.50
2022-11-15T10:26:40.884Z,62.86
2022-11-15T10:28:42.253Z,62.94
2022-11-15T10:30:43.546Z,63.11
2022-11-15T10:32:44.942Z,62.66
2022-11-15T10:34:46.240Z,62.73
2022-11-15T10:36:50.257Z,63.17
2022-11-15T10:38:51.882Z,62.84
2022-11-15T10:40:53.204Z,63.18
2022-11-15T10:42:54.513Z,62.98
2022-11-15T10:44:55.855Z,63.45
2022-11-15T10:46:57.467Z,63.35
2022-11-15T10:48:58.768Z,63.62
2022-11-15T10:51:00.052Z,63.44
2022-11-15T10:53:01.372Z,63.55
2022-11-15T10:55:03.477Z,63.58
2022-11-15T10:57:04.780Z,63.25
2022-11-15T10:59:06.116Z,63.38
2022-11-15T11:01:07.442Z,63.21
2022-11-15T11:03:08.777Z,63.13
2022-11-15T11:05:10.077Z,63.24
2022-11-15T11:07:11.394Z,63.56
2022-11-15T11:09:12.805Z,63.42
2022-11-15T11:11:14.085Z,63.05
2022-11-15T11:13:15.809Z,62.91
2022-11-15T11:15:17.109Z,63.13
2022-11-15T11:17:18.897Z,63.28
2022-11-15T11:19:20.224Z,62.96
2022-11-15T11:21:25.675Z,63.05
2022-11-15T11:23:31.839Z,63.03
2022-11-15T11:25:33.301Z,62.58
2022-11-15T11:27:34.586Z,62.88
2022-11-15T11:29:35.954Z,62.74
2022-11-15T11:31:37.229Z,63.04
2022-11-15T11:33:38.561Z,62.98
2022-11-15T11:35:39.853Z,62.67
2022-11-15T11:37:41.177Z,62.67
2022-11-15T11:39:42.605Z,62.88
2022-11-15T11:41:43.902Z,62.75
2022-11-15T11:43:45.362Z,62.75
2022-11-15T11:45:47.735Z,62.63
2022-11-15T11:47:49.701Z,62.61
2022-11-15T11:49:50.985Z,62.76
2022-11-15T11:51:52.278Z,62.82
2022-11-15T11:53:53.711Z,63.13
2022-11-15T11:55:55.010Z,62.81
2022-11-15T11:57:56.304Z,62.89
2022-11-15T11:59:57.736Z,62.97
2022-11-15T12:01:59.075Z,62.84
2022-11-15T12:04:00.433Z,62.97
2022-11-15T12:06:02.281Z,63.37
2022-11-15T12:08:04.427Z,63.30
2022-11-15T12:10:05.814Z,62.88
2022-11-15T12:12:07.182Z,63.54
2022-11-15T12:14:08.452Z,63.28
2022-11-15T12:16:10.755Z,63.19
2022-11-15T12:18:12.146Z,63.13
2022-11-15T12:20:13.437Z,63.72
2022-11-15T12:22:14.846Z,63.97
2022-11-15T12:24:16.166Z,63.37
2022-11-15T12:26:17.493Z,63.58
2022-11-15T12:28:18.812Z,63.87
2022-11-15T12:30:20.122Z,63.88
2022-11-15T12:32:21.404Z,63.25
2022-11-15T12:34:23.167Z,63.51
2022-11-15T12:36:24.480Z,63.46
2022-11-15T12:38:25.896Z,64.04
2022-11-15T12:40:27.225Z,63.42
2022-11-15T12:42:28.500Z,63.96
2022-11-15T12:44:29.770Z,63.54
2022-11-15T12:46:31.109Z,63.45
2022-11-15T12:48:32.513Z,63.31
2022-11-15T12:50:34.016Z,63.51
2022-11-15T12:52:35.316Z,62.96
2022-11-15T12:54:36.602Z,63.46
2022-11-15T12:56:37.918Z,62.93
2022-11-15T12:58:39.190Z,63.40
2022-11-15T13:00:40.482Z,63.11
2022-11-15T13:02:42.785Z,63.34
2022-11-15T13:04:44.062Z,63.01
2022-11-15T13:06:45.368Z,63.29
2022-11-15T13:08:48.641Z,63.21
2022-11-15T13:10:50.007Z,62.70
2022-11-15T13:12:51.397Z,63.40
2022-11-15T13:14:52.737Z,63.01
2022-11-15T13:16:54.368Z,63.36
2022-11-15T13:18:55.636Z,63.19
2022-11-15T13:21:02.167Z,63.15
2022-11-15T13:23:04.182Z,62.91
2022-11-15T13:25:05.497Z,63.21
2022-11-15T13:27:06.768Z,63.03
2022-11-15T13:29:08.370Z,63.30
2022-11-15T13:31:10.015Z,63.16
2022-11-15T13:33:11.306Z,63.39
2022-11-15T13:35:12.614Z,62.79
2022-11-15T13:37:13.954Z,63.31
2022-11-15T13:39:15.245Z,63.11
2022-11-15T13:41:16.563Z,63.12
2022-11-15T13:43:17.866Z,63.26
2022-11-15T13:45:19.200Z,63.17
2022-11-15T13:47:20.535Z,63.53
2022-11-15T13:49:21.899Z,63.51
2022-11-15T13:51:23.184Z,63.76
2022-11-15T13:53:24.538Z,63.69
2022-11-15T13:55:25.824Z,63.27
2022-11-15T13:57:28.774Z,63.54
2022-11-15T13:59:30.044Z,63.17
2022-11-15T14:01:31.436Z,63.30
2022-11-15T14:03:32.756Z,63.94
2022-11-15T14:05:35.000Z,63.90
2022-11-15T14:07:43.275Z,63.69
2022-11-15T14:09:50.961Z,63.81
2022-11-15T14:11:52.267Z,63.83
2022-11-15T14:13:53.533Z,63.75
2022-11-15T14:15:57.120Z,63.46
2022-11-15T14:17:59.051Z,63.62
2022-11-15T14:20:00.789Z,63.92
2022-11-15T14:22:05.117Z,63.54
2022-11-15T14:24:06.401Z,63.53
2022-11-15T14:26:12.105Z,63.29
2022-11-15T14:28:14.501Z,63.82
2022-11-15T14:30:15.898Z,63.33
2022-11-15T14:32:17.194Z,63.00
2022-11-15T14:34:18.821Z,63.32
2022-11-15T14:36:20.168Z,63.28
2022-11-15T14:38:21.785Z,63.44
2022-11-15T14:40:24.393Z,62.86
2022-11-15T14:42:25.690Z,63.22
2022-11-15T14:44:26.978Z,62.91
2022-11-15T14:46:31.005Z,63.27
2022-11-15T14:48:32.517Z,63.06
2022-11-15T14:50:34.017Z,62.73
2022-11-15T14:52:38.645Z,63.13
2022-11-15T14:54:39.993Z,62.77
2022-11-15T14:56:42.647Z,62.78
2022-11-15T14:58:44.770Z,62.76
2022-11-15T15:00:46.037Z,63.18
2022-11-15T15:02:47.692Z,63.31
2022-11-15T15:04:49.909Z,63.42
2022-11-15T15:06:51.739Z,63.31
2022-11-15T15:08:53.072Z,62.95
2022-11-15T15:10:54.559Z,63.63
2022-11-15T15:12:58.233Z,63.24
2022-11-15T15:14:59.514Z,63.18
2022-11-15T15:17:00.780Z,63.59
2022-11-15T15:19:02.594Z,63.11
2022-11-15T15:21:07.985Z,63.75
2022-11-15T15:23:12.575Z,63.82
2022-11-15T15:25:16.545Z,63.32
2022-11-15T15:27:17.859Z,64.08
2022-11-15T15:29:21.809Z,63.96
2022-11-15T15:31:27.589Z,63.86
2022-11-15T15:33:29.483Z,63.47
2022-11-15T15:35:31.301Z,63.97
2022-11-15T15:37:34.529Z,63.71
2022-11-15T15:39:37.989Z,63.63
2022-11-15T15:41:39.266Z,64.15
2022-11-15T15:43:42.822Z,63.68
2022-11-15T15:45:46.390Z,63.79
2022-11-15T15:47:47.684Z,63.66
2022-11-15T15:49:49.500Z,64.09
2022-11-15T15:51:51.718Z,63.39
2022-11-15T15:53:58.661Z,63.80
2022-11-15T15:55:59.949Z,63.70
2022-11-15T15:58:01.238Z,62.95
2022-11-15T16:00:04.430Z,63.10
2022-11-15T16:02:05.719Z,63.26
2022-11-15T16:04:07.004Z,63.15
2022-11-15T16:06:08.656Z,62.92
2022-11-15T16:08:09.982Z,62.80
2022-11-15T16:10:14.081Z,62.81
2022-11-15T16:12:17.262Z,62.31
2022-11-15T16:14:20.401Z,62.30
2022-11-15T16:16:23.448Z,62.56
2022-11-15T16:18:24.730Z,62.53
2022-11-15T16:20:28.094Z,62.29
2022-11-15T16:22:30.179Z,62.58
2022-11-15T16:24:32.117Z,62.62
2022-11-15T16:26:34.077Z,63.00
2022-11-15T16:28:36.070Z,62.83
2022-11-15T16:30:37.665Z,63.26
2022-11-15T16:32:40.116Z,63.29
2022-11-15T16:34:46.132Z,63.31
2022-11-15T16:36:50.774Z,63.43
2022-11-15T16:38:52.069Z,63.13
2022-11-15T16:40:53.340Z,63.03
2022-11-15T16:42:58.602Z,63.49
2022-11-15T16:45:01.468Z,63.35
2022-11-15T16:47:02.755Z,63.49
2022-11-15T16:49:05.257Z,63.30
2022-11-15T16:51:06.536Z,63.37
2022-11-15T16:53:10.693Z,63.47
2022-11-15T16:55:12.457Z,63.50
2022-11-15T16:57:13.736Z,63.72
2022-11-15T16:59:15.476Z,63.89
2022-11-15T17:01:16.818Z,63.40
2022-11-15T17:03:18.888Z,63.50
2022-11-15T17:05:20.722Z,63.75
2022-11-15T17:07:22.658Z,63.51
2022-11-15T17:09:29.339Z,64.01
2022-11-15T17:11:30.616Z,63.35
2022-11-15T17:13:33.851Z,63.64
2022-11-15T17:15:36.201Z,63.60
2022-11-15T17:17:38.028Z,63.33
2022-11-15T17:19:39.292Z,63.99
2022-11-15T17:21:40.797Z,63.41
2022-11-15T17:23:42.617Z,63.37
2022-11-15T17:25:44.294Z,63.30
2022-11-15T17:27:45.664Z,63.10
2022-11-15T17:29:46.947Z,63.03
2022-11-15T17:31:49.011Z,62.58
2022-11-15T17:33:50.357Z,63.06
2022-11-15T17:35:51.685Z,62.60
2022-11-15T17:37:53.721Z,62.54
2022-11-15T17:39:57.441Z,62.69
2022-11-15T17:41:58.762Z,62.25
2022-11-15T17:44:04.313Z,62.36
2022-11-15T17:46:07.576Z,62.42
2022-11-15T17:48:09.499Z,62.19
2022-11-15T17:50:12.256Z,62.25
2022-11-15T17:52:13.557Z,62.39
2022-11-15T17:54:14.937Z,62.44
2022-11-15T17:56:16.629Z,62.20
2022-11-15T17:58:18.720Z,62.77
2022-11-15T18:00:21.697Z,62.52
2022-11-15T18:02:23.780Z,62.68
2022-11-15T18:04:28.837Z,62.78
2022-11-15T18:06:33.708Z,62.77
2022-11-15T18:08:34.998Z,62.69
2022-11-15T18:10:36.271Z,63.37
2022-11-15T18:12:40.330Z,63.04
2022-11-15T18:14:41.681Z,63.06
2022-11-15T18:16:46.162Z,62.93
2022-11-15T18:18:56.798Z,63.17
2022-11-15T18:21:00.712Z,63.69
2022-11-15T18:23:04.208Z,63.45
2022-11-15T18:25:06.751Z,63.23
2022-11-15T18:27:11.162Z,63.37
2022-11-15T18:29:12.460Z,63.43
2022-11-15T18:31:17.028Z,64.08
2022-11-15T18:33:20.118Z,63.68
2022-11-15T18:35:21.421Z,63.54
2022-11-15T18:37:23.497Z,63.35
2022-11-15T18:39:24.779Z,63.74
2022-11-15T18:41:31.753Z,63.85
2022-11-15T18:43:35.603Z,63.89
2022-11-15T18:45:37.260Z,63.69
2022-11-15T18:47:41.483Z,63.63
2022-11-15T18:49:42.839Z,63.61
2022-11-15T18:51:44.131Z,63.67
2022-11-15T18:53:46.136Z,63.44
2022-11-15T18:55:47.958Z,63.29
2022-11-15T18:57:49.262Z,63.21
2022-11-15T18:59:50.950Z,63.19
2022-11-15T19:01:52.377Z,63.32
2022-11-15T19:03:53.863Z,62.90
2022-11-15T19:06:10.333Z,63.32
2022-11-15T19:08:17.433Z,62.91
2022-11-15T19:10:20.484Z,62.82
2022-11-15T19:12:21.813Z,63.04
2022-11-15T19:14:24.439Z,63.41
2022-11-15T19:16:28.063Z,63.44
2022-11-15T19:18:35.170Z,63.38
2022-11-15T19:20:39.333Z,63.48
2022-11-15T19:22:41.201Z,63.43
2022-11-15T19:24:48.880Z,63.04
2022-11-15T19:26:54.522Z,63.34
2022-11-15T19:28:58.034Z,62.79
2022-11-15T19:30:59.318Z,62.53
2022-11-15T19:33:00.609Z,62.54
2022-11-15T19:35:01.901Z,62.36
2022-11-15T19:37:03.418Z,62.17
2022-11-15T19:39:08.338Z,62.55
2022-11-15T19:41:09.768Z,62.31
2022-11-15T19:43:11.068Z,62.91
2022-11-15T19:45:12.381Z,62.77
2022-11-15T19:47:13.668Z,62.81
2022-11-15T19:49:15.767Z,63.08
2022-11-15T19:51:21.818Z,62.70
2022-11-15T19:53:23.098Z,62.76
2022-11-15T19:55:24.390Z,62.82
2022-11-15T19:57:25.698Z,63.17
2022-11-15T19:59:27.055Z,63.21
2022-11-15T20:01:28.530Z,63.14
2022-11-15T20:03:30.120Z,63.51
2022-11-15T20:05:31.744Z,63.70
2022-11-15T20:07:33.095Z,63.57
2022-11-15T20:09:34.529Z,63.03
2022-11-15T20:11:38.737Z,63.61
2022-11-15T20:13:40.042Z,63.13
2022-11-15T20:15:41.356Z,63.72
2022-11-15T20:17:42.673Z,63.80
2022-11-15T20:19:44.828Z,63.38
2022-11-15T20:21:46.153Z,63.38
2022-11-15T20:23:47.936Z,63.72
2022-11-15T20:25:49.241Z,63.60
2022-11-15T20:27:53.436Z,63.98
2022-11-15T20:29:54.736Z,63.32
2022-11-15T20:31:56.029Z,63.40
2022-11-15T20:33:57.407Z,63.90
2022-11-15T20:35:58.757Z,63.39
2022-11-15T20:38:00.030Z,63.20
2022-11-15T20:40:01.410Z,63.33
2022-11-15T20:42:03.673Z,63.36
2022-11-15T20:44:05.162Z,63.49
2022-11-15T20:46:06.453Z,63.23
2022-11-15T20:48:07.798Z,62.80
2022-11-15T20:50:35.317Z,63.10
2022-11-15T20:52:30.425Z,63.01
2022-11-15T20:54:31.760Z,62.88
2022-11-15T20:56:33.053Z,62.37
2022-11-15T20:58:37.165Z,62.34
2022-11-15T21:00:38.473Z,62.67
2022-11-15T21:02:39.793Z,62.25
2022-11-15T21:04:41.177Z,62.54
2022-11-15T21:06:47.473Z,62.34
2022-11-15T21:09:09.070Z,62.34
2022-11-15T21:11:28.970Z,62.36
2022-11-15T21:13:30.329Z,62.70
2022-11-15T21:15:31.612Z,62.83
2022-11-15T21:17:33.816Z,63.04
2022-11-15T21:19:37.033Z,62.72
2022-11-15T21:21:38.517Z,62.83
2022-11-15T21:23:40.821Z,63.17
2022-11-15T21:25:42.127Z,63.09
2022-11-15T21:27:43.397Z,63.18
2022-11-15T21:29:45.736Z,63.11
2022-11-15T21:31:49.878Z,63.43
2022-11-15T21:33:51.840Z,63.50
2022-11-15T21:35:53.357Z,63.69
2022-11-15T21:37:56.939Z,63.68
2022-11-15T21:39:58.626Z,63.72
2022-11-15T21:41:59.914Z,63.34
2022-11-15T21:44:03.817Z,63.31
2022-11-15T21:46:05.096Z,63.69
2022-11-15T21:48:06.383Z,64.08
2022-11-15T21:50:09.357Z,63.71
2022-11-15T21:52:12.536Z,63.97
2022-11-15T21:54:18.018Z,63.67
2022-11-15T21:56:19.317Z,63.86
2022-11-15T21:58:22.693Z,63.96
2022-11-15T22:00:42.872Z,63.75
2022-11-15T22:02:44.170Z,63.74
2022-11-15T22:04:45.978Z,63.99
2022-11-15T22:06:47.395Z,63.45
2022-11-15T22:08:48.721Z,63.54
2022-11-15T22:10:52.025Z,63.55
2022-11-15T22:12:53.310Z,63.24
2022-11-15T22:14:55.325Z,63.26
2022-11-15T22:16:57.308Z,63.65
2022-11-15T22:18:58.663Z,63.20
2022-11-15T22:21:01.053Z,63.25
2022-11-15T22:23:02.369Z,62.80
2022-11-15T22:25:04.034Z,62.84
2022-11-15T22:27:06.505Z,62.84
2022-11-15T22:29:09.353Z,62.22
2022-11-15T22:31:10.688Z,62.56
2022-11-15T22:33:13.593Z,62.26
2022-11-15T22:35:14.942Z,61.94
2022-11-15T22:37:21.077Z,62.11
2022-11-15T22:39:24.349Z,62.29
2022-11-15T22:41:25.686Z,62.12
2022-11-15T22:43:28.584Z,62.36
2022-11-15T22:45:29.922Z,62.27
2022-11-15T22:47:31.434Z,62.72
2022-11-15T22:49:33.862Z,62.68
2022-11-15T22:51:35.168Z,62.82
2022-11-15T22:53:37.376Z,62.63
2022-11-15T22:55:40.971Z,63.07
2022-11-15T22:57:44.225Z,62.66
2022-11-15T22:59:45.893Z,62.98
2022-11-15T23:01:48.358Z,63.06
2022-11-15T23:03:49.755Z,63.04
2022-11-15T23:05:51.756Z,63.10
2022-11-15T23:07:53.049Z,62.97
2022-11-15T23:10:13.199Z,63.34
2022-11-15T23:12:34.405Z,63.32
2022-11-15T23:14:35.714Z,63.35
2022-11-15T23:16:37.078Z,63.13
2022-11-15T23:18:40.492Z,63.48
2022-11-15T23:20:43.866Z,63.22
2022-11-15T23:22:48.508Z,63.31
2022-11-15T23:24:50.014Z,63.64
2022-11-15T23:26:51.749Z,63.70
2022-11-15T23:28:54.105Z,63.55
2022-11-15T23:31:16.062Z,63.96
2022-11-15T23:33:37.465Z,63.42
2022-11-15T23:35:39.067Z,63.80
2022-11-15T23:37:40.893Z,63.70
2022-11-15T23:39:43.850Z,63.70
2022-11-15T23:41:45.161Z,64.04
2022-11-15T23:43:49.750Z,63.16
2022-11-15T23:45:51.053Z,63.43
2022-11-15T23:47:55.862Z,63.31
2022-11-15T23:50:01.366Z,62.99
2022-11-15T23:52:04.580Z,63.02
2022-11-15T23:54:09.305Z,62.94
2022-11-15T23:56:11.335Z,62.75
2022-11-15T23:58:13.073Z,62.71
